Time;durP1;ratioP1;P1;durP2;ratioP2;P2;SDS_P1;SDS_P2;PMS_P1;PMS_P2;Temp;Humidity;BMP_temperature;BMP_pressure;BME280_temperature;BME280_humidity;BME280_pressure;Samples;Min_cycle;Max_cycle;Signal;HPM_P1;HPM_P2
2022/06/08 00:00:56;;;;;;;4.73;3.40;;;;;;;17.07;100.00;62625.19;5091550;28;20215;-74
2022/06/08 00:03:29;;;;;;;7.70;3.50;;;;;;;16.92;100.00;62613.66;5091368;28;20754;-73
2022/06/08 00:05:56;;;;;;;4.43;3.40;;;;;;;16.93;100.00;62615.25;5091888;28;20218;-73
2022/06/08 00:08:24;;;;;;;3.77;3.47;;;;;;;17.10;100.00;62633.59;5091253;28;20228;-73
2022/06/08 00:10:52;;;;;;;4.77;3.70;;;;;;;17.05;100.00;62622.50;5077646;28;20205;-74
2022/06/08 00:13:20;;;;;;;4.13;3.73;;;;;;;16.77;100.00;62592.88;5091267;28;20203;-73
2022/06/08 00:15:48;;;;;;;4.43;3.27;;;;;;;17.10;100.00;62630.47;5091211;28;20199;-73
2022/06/08 00:18:15;;;;;;;4.17;3.20;;;;;;;17.07;100.00;62625.19;5091276;28;20215;-75
2022/06/08 00:20:42;;;;;;;3.50;2.93;;;;;;;16.79;100.00;62595.03;5090094;28;20200;-73
2022/06/08 00:23:14;;;;;;;3.63;3.00;;;;;;;16.88;100.00;62612.44;5091200;28;20555;-72
2022/06/08 00:25:41;;;;;;;3.63;3.20;;;;;;;16.74;100.00;62589.63;5091516;28;20195;-72
2022/06/08 00:28:10;;;;;;;4.93;3.40;;;;;;;16.92;100.00;62612.13;5090918;28;20255;-74
2022/06/08 00:30:37;;;;;;;7.60;3.60;;;;;;;17.00;100.00;62617.66;5091293;28;20600;-72
2022/06/08 00:33:06;;;;;;;6.63;3.57;;;;;;;16.90;100.00;62609.97;5088142;28;20201;-73
2022/06/08 00:35:35;;;;;;;6.20;3.33;;;;;;;16.92;100.00;62609.03;5080192;28;20231;-74
2022/06/08 00:38:02;;;;;;;7.07;3.50;;;;;;;16.87;100.00;62609.34;5091064;28;20199;-73
2022/06/08 00:40:38;;;;;;;7.40;3.80;;;;;;;16.47;100.00;62557.94;5091259;28;20198;-73
2022/06/08 00:43:07;;;;;;;9.83;4.47;;;;;;;16.86;100.00;62602.56;5092871;28;20322;-73
2022/06/08 00:45:34;;;;;;;10.13;4.17;;;;;;;16.73;100.00;62591.66;5093469;28;20662;-72
2022/06/08 00:48:06;;;;;;;5.57;3.60;;;;;;;16.60;100.00;62580.22;5091184;28;20276;-75
2022/06/08 00:50:39;;;;;;;5.50;3.17;;;;;;;16.65;100.00;62580.47;5075523;28;20214;-73
2022/06/08 00:53:07;;;;;;;5.50;4.43;;;;;;;16.66;100.00;62588.75;5095026;28;20200;-74
2022/06/08 00:55:39;;;;;;;4.57;3.97;;;;;;;16.61;100.00;62575.63;5094769;28;20267;-74
2022/06/08 00:58:12;;;;;;;7.27;4.40;;;;;;;16.62;100.00;62576.72;5094949;28;20204;-73
2022/06/08 01:00:41;;;;;;;8.70;4.97;;;;;;;16.66;100.00;62581.53;5095045;28;20237;-74
2022/06/08 01:03:12;;;;;;;9.37;5.60;;;;;;;16.16;100.00;62529.69;5094714;28;20732;-73
2022/06/08 01:05:42;;;;;;;7.83;5.20;;;;;;;16.52;100.00;62566.47;5094785;28;20265;-74
2022/06/08 01:08:21;;;;;;;8.23;4.73;;;;;;;16.44;100.00;62559.88;5094090;28;20238;-74
2022/06/08 01:10:53;;;;;;;8.50;5.50;;;;;;;16.48;100.00;62561.59;5087244;28;20211;-73
2022/06/08 01:13:21;;;;;;;7.33;4.93;;;;;;;16.56;100.00;62570.25;5088688;28;20200;-76
2022/06/08 01:15:50;;;;;;;12.47;4.60;;;;;;;16.44;100.00;62557.81;5094579;28;20279;-72
2022/06/08 01:18:19;;;;;;;8.17;4.70;;;;;;;16.37;100.00;62547.16;5094765;28;20265;-74
2022/06/08 01:20:48;;;;;;;9.47;4.40;;;;;;;16.04;100.00;62515.28;5093563;28;20245;-74
2022/06/08 01:23:17;;;;;;;7.03;4.30;;;;;;;16.55;100.00;62566.59;5094753;28;20200;-73
2022/06/08 01:26:08;;;;;;;12.67;4.57;;;;;;;16.55;100.00;62569.69;5094582;28;20200;-74
2022/06/08 01:28:46;;;;;;;6.80;4.13;;;;;;;16.65;100.00;62580.47;5094513;28;20721;-74
2022/06/08 01:31:20;;;;;;;7.43;4.10;;;;;;;16.63;100.00;62580.91;5084186;28;20659;-74
2022/06/08 01:33:57;;;;;;;6.53;3.90;;;;;;;16.62;100.00;62577.22;5092201;28;20720;-74
2022/06/08 01:36:45;;;;;;;4.93;3.50;;;;;;;16.60;100.00;62575.06;5094154;28;20705;-75
2022/06/08 01:39:24;;;;;;;6.50;3.63;;;;;;;16.56;100.00;62570.78;5091530;28;20678;-74
2022/06/08 01:42:07;;;;;;;4.50;3.43;;;;;;;16.53;100.00;62569.56;5094389;28;20269;-74
2022/06/08 01:47:56;;;;;;;3.80;3.20;;;;;;;16.39;100.00;62551.91;5094167;28;20234;-72
2022/06/08 01:50:34;;;;;;;5.53;3.43;;;;;;;16.27;100.00;62544.09;5094132;28;20721;-75
2022/06/08 01:53:06;;;;;;;5.73;3.00;;;;;;;15.95;100.00;62505.03;5093980;28;20260;-74
2022/06/08 01:55:43;;;;;;;5.97;3.10;;;;;;;16.20;100.00;62531.44;5085891;28;20264;-73
2022/06/08 01:58:16;;;;;;;5.93;3.33;;;;;;;16.21;100.00;62537.66;5091094;28;20202;-73
2022/06/08 02:00:47;;;;;;;5.03;3.10;;;;;;;16.16;100.00;62527.13;5093703;28;20689;-74
2022/06/08 02:03:22;;;;;;;4.23;3.27;;;;;;;16.19;100.00;62532.91;5093538;28;20253;-74
2022/06/08 02:05:57;;;;;;;3.47;3.10;;;;;;;16.23;100.00;62534.66;5092540;28;20328;-74
2022/06/08 02:08:33;;;;;;;5.10;3.80;;;;;;;16.18;100.00;62526.72;5093463;28;20219;-73
2022/06/08 02:11:09;;;;;;;4.77;3.43;;;;;;;16.20;100.00;62534.00;5093563;28;20199;-73
2022/06/08 02:13:43;;;;;;;5.63;3.50;;;;;;;16.21;100.00;62537.66;5092946;28;20199;-74
2022/06/08 02:16:19;;;;;;;8.97;3.60;;;;;;;16.30;100.00;62542.22;5093126;28;20283;-73
2022/06/08 02:18:51;;;;;;;5.97;4.00;;;;;;;16.14;100.00;62527.53;5093317;28;20724;-75
2022/06/08 02:21:22;;;;;;;5.47;3.47;;;;;;;16.25;100.00;62539.38;5078975;28;20195;-73
2022/06/08 02:23:56;;;;;;;7.13;4.00;;;;;;;15.94;100.00;62501.94;5093683;28;20212;-74
2022/06/08 02:26:30;;;;;;;8.33;3.83;;;;;;;16.28;100.00;62545.19;5093453;28;20268;-74
2022/06/08 02:29:00;;;;;;;16.77;4.43;;;;;;;16.11;100.00;62522.28;5093631;28;20235;-74
2022/06/08 02:31:34;;;;;;;10.27;6.47;;;;;;;16.04;100.00;62515.28;5092185;28;20705;-74
2022/06/08 02:36:53;;;;;;;12.80;7.03;;;;;;;16.12;100.00;62522.81;5093438;28;20253;-72
2022/06/08 02:39:27;;;;;;;18.47;6.93;;;;;;;16.18;100.00;62534.44;5092767;28;20203;-74
2022/06/08 02:42:02;;;;;;;13.10;6.57;;;;;;;16.02;100.00;62513.13;5092901;28;20219;-74
2022/06/08 02:44:33;;;;;;;13.37;6.03;;;;;;;16.03;100.00;62516.22;5093077;28;20211;-73
2022/06/08 02:47:05;;;;;;;15.03;7.07;;;;;;;15.82;100.00;62494.16;5092747;28;20207;-75
2022/06/08 02:49:33;;;;;;;13.80;8.50;;;;;;;15.88;100.00;62498.03;5092560;28;20262;-73
2022/06/08 02:52:05;;;;;;;17.03;10.40;;;;;;;16.05;100.00;62521.50;5092725;28;20199;-73
2022/06/08 02:54:32;;;;;;;17.43;10.23;;;;;;;15.56;100.00;62466.16;5092811;28;20199;-74
2022/06/08 02:57:07;;;;;;;19.13;11.43;;;;;;;15.52;100.00;62459.28;5092155;28;20284;-75
2022/06/08 02:59:41;;;;;;;15.93;11.10;;;;;;;15.51;100.00;62460.78;5092580;28;20207;-73
2022/06/08 03:02:15;;;;;;;12.13;5.60;;;;;;;15.50;100.00;62456.59;5092433;28;20614;-74
2022/06/08 03:04:50;;;;;;;6.87;3.37;;;;;;;15.10;100.00;62414.06;5091727;28;20261;-74
2022/06/08 03:07:22;;;;;;;6.87;4.10;;;;;;;15.35;100.00;62440.97;5074244;28;20199;-72
2022/06/08 03:09:51;;;;;;;7.93;3.40;;;;;;;15.47;100.00;62453.91;5092512;28;20307;-73
2022/06/08 03:12:27;;;;;;;4.33;3.23;;;;;;;15.58;100.00;62470.34;5091999;28;20564;-74
2022/06/08 03:14:56;;;;;;;5.37;3.60;;;;;;;15.59;100.00;62471.41;5091951;28;20605;-73
2022/06/08 03:17:27;;;;;;;4.97;3.27;;;;;;;15.58;100.00;62465.19;5091661;28;20321;-73
2022/06/08 03:19:54;;;;;;;8.80;3.70;;;;;;;15.63;100.00;62471.13;5092332;28;20655;-73
2022/06/08 03:22:23;;;;;;;5.57;3.70;;;;;;;15.62;100.00;62467.47;5073845;28;20207;-74
2022/06/08 03:24:50;;;;;;;4.10;3.57;;;;;;;15.56;100.00;62468.19;5092027;28;20199;-74
2022/06/08 03:27:17;;;;;;;8.23;3.53;;;;;;;15.82;100.00;62496.72;5092205;28;20200;-73
2022/06/08 03:29:45;;;;;;;5.87;3.00;;;;;;;16.02;100.00;62513.13;5092178;28;20231;-72
2022/06/08 03:32:12;;;;;;;7.97;3.67;;;;;;;15.98;100.00;62511.38;5091986;28;20206;-72
2022/06/08 03:34:40;;;;;;;8.23;4.03;;;;;;;15.86;100.00;62495.88;5091712;28;20286;-74
2022/06/08 03:37:09;;;;;;;5.77;3.30;;;;;;;15.87;100.00;62502.13;5092048;28;20200;-72
2022/06/08 03:39:37;;;;;;;3.60;3.13;;;;;;;15.84;100.00;62496.31;5091718;28;20242;-73
2022/06/08 03:42:05;;;;;;;10.33;3.50;;;;;;;15.65;100.00;62470.19;5091910;28;20737;-74
2022/06/08 03:44:32;;;;;;;7.97;3.40;;;;;;;15.67;100.00;62478.00;5091763;28;20760;-73
2022/06/08 03:47:05;;;;;;;7.30;3.60;;;;;;;15.77;100.00;62488.22;5091988;28;20195;-74
2022/06/08 03:49:34;;;;;;;9.27;3.70;;;;;;;14.65;100.00;62368.22;5091407;28;20242;-72
2022/06/08 03:52:05;;;;;;;14.63;4.50;;;;;;;15.86;100.00;62495.34;5091608;28;20607;-72
2022/06/08 03:54:37;;;;;;;8.27;3.30;;;;;;;16.15;100.00;62531.19;5091466;28;20568;-73
2022/06/08 03:57:08;;;;;;;6.53;3.77;;;;;;;16.25;100.00;62539.94;5091973;28;20203;-73
2022/06/08 03:59:40;;;;;;;5.13;4.00;;;;;;;16.35;100.00;62548.13;5091367;28;20203;-74
2022/06/08 04:02:09;;;;;;;5.03;3.83;;;;;;;16.56;100.00;62572.81;5091212;28;20252;-74
2022/06/08 04:04:36;;;;;;;4.83;3.63;;;;;;;16.70;100.00;62587.91;5090037;28;20290;-74
2022/06/08 04:07:04;;;;;;;10.50;4.37;;;;;;;16.95;100.00;62614.84;5091223;28;20234;-74
2022/06/08 04:09:31;;;;;;;8.50;4.10;;;;;;;17.02;100.00;62619.81;5091155;28;20234;-74
2022/06/08 04:11:59;;;;;;;6.47;3.77;;;;;;;16.33;100.00;62548.00;5091448;28;20660;-74
2022/06/08 04:14:29;;;;;;;6.23;3.60;;;;;;;16.55;100.00;62571.72;5090760;28;20215;-74
2022/06/08 04:16:56;;;;;;;12.43;4.17;;;;;;;16.84;100.00;62606.09;5090987;28;20203;-73
2022/06/08 04:19:25;;;;;;;11.23;4.37;;;;;;;16.30;100.00;62544.78;5092721;28;20203;-72
2022/06/08 04:21:54;;;;;;;8.70;3.83;;;;;;;17.10;100.00;62628.44;5075876;28;20214;-73
2022/06/08 04:24:24;;;;;;;8.67;4.30;;;;;;;17.21;100.00;62642.88;5091117;28;20252;-73
2022/06/08 04:26:56;;;;;;;8.90;3.83;;;;;;;16.97;100.00;62617.00;5091114;28;20257;-76
2022/06/08 04:29:23;;;;;;;5.67;4.03;;;;;;;17.77;100.00;62695.00;5090954;28;20223;-74
2022/06/08 04:31:50;;;;;;;7.13;4.30;;;;;;;17.75;100.00;62702.63;5090887;28;20569;-73
2022/06/08 04:34:20;;;;;;;7.33;3.93;;;;;;;17.71;100.00;62696.28;5090855;28;20199;-74
2022/06/08 04:36:49;;;;;;;8.23;4.47;;;;;;;17.89;100.00;62712.59;5091075;28;20211;-75
2022/06/08 04:39:21;;;;;;;10.53;3.80;;;;;;;17.80;100.00;62708.03;5091240;28;20211;-73
2022/06/08 04:41:48;;;;;;;4.13;3.37;;;;;;;17.73;100.00;62701.00;5091324;28;20224;-72
2022/06/08 04:44:17;;;;;;;7.30;3.70;;;;;;;16.99;100.00;62616.03;5091372;28;20203;-76
2022/06/08 04:46:49;;;;;;;8.63;3.87;;;;;;;17.79;100.00;62704.91;5091586;28;20547;-73
2022/06/08 04:49:16;;;;;;;4.47;3.87;;;;;;;18.08;100.00;62733.09;5091303;28;20231;-73
2022/06/08 04:51:44;;;;;;;8.70;3.80;;;;;;;18.16;100.00;62744.84;5072664;28;20200;-74
2022/06/08 04:54:12;;;;;;;9.93;3.77;;;;;;;18.38;100.00;62766.00;5090988;28;20600;-73
2022/06/08 04:56:39;;;;;;;9.03;3.83;;;;;;;18.65;100.00;62797.22;5090605;28;20206;-74
2022/06/08 04:59:06;;;;;;;22.17;4.60;;;;;;;18.72;100.00;62799.59;5091000;28;20204;-74
2022/06/08 05:01:34;;;;;;;9.93;4.00;;;;;;;18.92;100.00;62823.25;5090735;28;20268;-77
2022/06/08 05:04:01;;;;;;;8.57;3.70;;;;;;;18.71;100.00;62803.69;5089973;28;20207;-74
2022/06/08 05:06:28;;;;;;;6.17;3.87;;;;;;;18.99;100.00;62828.78;5090407;28;20218;-74
2022/06/08 05:08:56;;;;;;;6.43;5.47;;;;;;;19.02;100.00;62834.59;5090447;28;20204;-74
2022/06/08 05:11:25;;;;;;;12.30;6.00;;;;;;;19.07;100.00;62840.00;5090728;28;20203;-72
2022/06/08 05:13:52;;;;;;;16.57;5.73;;;;;;;19.06;100.00;62838.34;5090760;28;20192;-74
2022/06/08 05:16:19;;;;;;;14.00;5.37;;;;;;;18.33;100.00;62760.06;5090797;28;20252;-74
2022/06/08 05:18:46;;;;;;;6.47;5.27;;;;;;;18.82;100.00;62812.97;5090592;28;20610;-75
2022/06/08 05:21:13;;;;;;;15.03;6.20;;;;;;;18.95;100.00;62829.06;5091045;28;20205;-72
2022/06/08 05:23:43;;;;;;;11.73;5.23;;;;;;;19.13;100.00;62846.47;5090398;28;20196;-73
2022/06/08 05:26:12;;;;;;;13.50;6.47;;;;;;;18.98;100.00;62835.44;5090498;28;20211;-74
2022/06/08 05:28:42;;;;;;;15.77;6.57;;;;;;;19.02;100.00;62834.59;5090597;28;20211;-75
2022/06/08 05:31:09;;;;;;;8.03;5.40;;;;;;;18.41;100.00;62766.66;5090643;28;20270;-72
2022/06/08 05:33:39;;;;;;;22.13;5.40;;;;;;;18.99;100.00;62830.81;5090494;28;20204;-74
2022/06/08 05:36:07;;;;;;;6.73;5.23;;;;;;;19.14;100.00;62852.72;5091280;28;20235;-72
2022/06/08 05:38:34;;;;;;;10.90;4.50;;;;;;;19.15;100.00;62853.81;5094180;28;20207;-74
2022/06/08 05:41:01;;;;;;;12.23;6.93;;;;;;;19.36;100.00;62868.19;5094009;28;20677;-74
2022/06/08 05:43:29;;;;;;;15.97;7.07;;;;;;;19.59;100.00;62892.50;5093883;28;20204;-74
2022/06/08 05:45:57;;;;;;;16.17;7.23;;;;;;;19.56;100.00;62891.88;5094250;28;20200;-74
2022/06/08 05:48:24;;;;;;;7.93;6.53;;;;;;;19.88;100.00;62926.44;5093764;28;20208;-73
2022/06/08 05:50:52;;;;;;;10.37;5.87;;;;;;;20.20;100.00;62961.06;5075629;28;20234;-74
2022/06/08 05:53:19;;;;;;;11.63;5.50;;;;;;;20.32;100.00;62974.03;5094135;28;20226;-73
2022/06/08 05:55:46;;;;;;;7.60;4.70;;;;;;;20.47;100.00;62992.28;5093252;28;20204;-72
2022/06/08 05:58:13;;;;;;;11.03;5.83;;;;;;;20.05;100.00;62950.00;5093618;28;20199;-74
2022/06/08 06:00:41;;;;;;;15.47;5.30;;;;;;;20.52;100.00;62995.66;5093512;28;20266;-74
2022/06/08 06:03:10;;;;;;;11.33;5.27;;;;;;;19.54;100.00;62889.72;5075321;28;20580;-73
2022/06/08 06:05:40;;;;;;;14.60;5.70;;;;;;;20.88;100.00;63034.63;5092576;28;20208;-73
2022/06/08 06:08:09;;;;;;;10.13;4.70;;;;;;;21.17;100.00;63064.94;5093687;28;20222;-72
2022/06/08 06:10:40;;;;;;;17.83;4.97;;;;;;;21.22;100.00;63070.31;5093286;28;20230;-73
2022/06/08 06:13:08;;;;;;;16.10;5.40;;;;;;;21.57;100.00;63108.22;5093467;28;20199;-73
2022/06/08 06:15:37;;;;;;;14.53;5.23;;;;;;;21.27;100.00;63070.56;5093143;28;20203;-74
2022/06/08 06:18:04;;;;;;;20.60;5.40;;;;;;;21.78;100.00;63130.94;5093620;28;20229;-73
2022/06/08 06:20:32;;;;;;;10.17;5.10;;;;;;;21.92;100.00;63151.31;5075517;28;20291;-73
2022/06/08 06:22:59;;;;;;;9.83;4.80;;;;;;;22.19;100.00;63175.38;5093450;28;20266;-75
2022/06/08 06:25:26;;;;;;;15.70;4.60;;;;;;;22.64;100.00;63223.59;5093510;28;20207;-74
2022/06/08 06:27:53;;;;;;;8.37;4.43;;;;;;;22.78;100.00;63238.78;5093619;28;20199;-73
2022/06/08 06:30:20;;;;;;;11.77;4.50;;;;;;;22.45;100.00;63203.53;5093156;28;20227;-74
2022/06/08 06:32:49;;;;;;;11.80;4.43;;;;;;;23.08;100.00;63270.75;5093413;28;20256;-73
2022/06/08 06:35:21;;;;;;;5.73;4.20;;;;;;;22.89;100.00;63250.16;5093045;28;20364;-74
2022/06/08 06:37:49;;;;;;;7.73;4.37;;;;;;;22.90;100.00;63253.84;5093554;28;20206;-74
2022/06/08 06:40:17;;;;;;;12.30;5.03;;;;;;;22.75;100.00;63240.19;5093205;28;20206;-73
2022/06/08 06:42:44;;;;;;;18.43;4.77;;;;;;;;;;5092848;28;20272;-72
2022/06/08 06:45:14;;;;;;;10.90;4.03;;;;;;;23.71;100.00;63339.06;5092911;28;20196;-73
2022/06/08 06:47:42;;;;;;;5.13;3.60;;;;;;;23.89;100.00;63356.00;5092886;28;20654;-74
2022/06/08 06:50:12;;;;;;;10.53;3.43;;;;;;;23.87;100.00;63356.44;5092934;28;20227;-74
2022/06/08 06:52:39;;;;;;;8.60;4.20;;;;;;;23.90;100.00;63357.09;5093092;28;20208;-74
2022/06/08 06:55:09;;;;;;;5.50;2.93;;;;;;;24.04;100.00;63374.91;5092801;28;20207;-74
2022/06/08 06:57:37;;;;;;;3.53;2.87;;;;;;;24.28;100.00;63400.41;5092745;28;20200;-75
2022/06/08 07:00:04;;;;;;;4.30;3.13;;;;;;;24.29;100.00;63402.03;5093164;28;20204;-73
2022/06/08 07:02:31;;;;;;;8.57;3.43;;;;;;;24.13;100.00;63384.66;5092926;28;20686;-75
2022/06/08 07:05:00;;;;;;;5.57;3.37;;;;;;;24.14;100.00;63385.75;5091949;28;20260;-73
2022/06/08 07:07:27;;;;;;;9.03;3.63;;;;;;;24.56;100.00;63430.78;5092732;28;20199;-73
2022/06/08 07:09:54;;;;;;;11.57;3.60;;;;;;;24.96;100.00;63476.28;5092767;28;20224;-73
2022/06/08 07:12:23;;;;;;;6.73;3.80;;;;;;;24.73;100.00;63448.72;5092633;28;20258;-72
2022/06/08 07:14:50;;;;;;;7.13;3.40;;;;;;;24.75;100.00;63445.69;5092579;28;20210;-73
2022/06/08 07:17:17;;;;;;;12.57;3.30;;;;;;;24.95;100.00;63473.13;5092257;28;20200;-74
2022/06/08 07:19:44;;;;;;;11.43;3.57;;;;;;;25.09;100.00;63488.34;5092235;28;20211;-73
2022/06/08 07:22:12;;;;;;;7.93;3.20;;;;;;;24.62;100.00;63431.53;5092413;28;20242;-75
2022/06/08 07:24:38;;;;;;;5.80;3.57;;;;;;;24.97;100.00;63475.31;5092243;28;20283;-74
2022/06/08 07:27:07;;;;;;;6.40;2.90;;;;;;;24.31;100.00;63403.66;5092384;28;20645;-73
2022/06/08 07:29:35;;;;;;;4.90;2.60;;;;;;;24.21;100.00;63393.34;5092264;28;20219;-74
2022/06/08 07:32:03;;;;;;;5.37;2.60;;;;;;;24.49;100.00;63422.66;5092375;28;20284;-73
2022/06/08 07:34:31;;;;;;;6.73;3.17;;;;;;;24.46;100.00;63419.38;5091703;28;20286;-75
2022/06/08 07:37:00;;;;;;;4.33;2.70;;;;;;;24.60;100.00;63434.59;5092589;28;20208;-75
2022/06/08 07:39:27;;;;;;;9.37;2.87;;;;;;;24.44;100.00;63412.00;5091914;28;20203;-75
2022/06/08 07:41:55;;;;;;;7.47;3.33;;;;;;;24.84;100.00;63460.66;5091865;28;20300;-74
2022/06/08 07:44:23;;;;;;;7.23;2.57;;;;;;;24.64;100.00;63438.94;5091655;28;20200;-73
2022/06/08 07:46:51;;;;;;;9.07;3.13;;;;;;;25.27;100.00;63502.16;5091843;28;20553;-73
2022/06/08 07:49:39;;;;;;;6.23;3.23;;;;;;;25.69;100.00;63553.00;5091442;28;20264;-73
2022/06/08 07:52:07;;;;;;;11.07;3.33;;;;;;;25.88;100.00;63568.41;5092233;28;20658;-73
2022/06/08 07:54:35;;;;;;;6.43;3.10;;;;;;;25.52;100.00;63534.53;5091847;28;20211;-74
2022/06/08 07:57:02;;;;;;;6.37;2.57;;;;;;;25.34;100.00;63504.53;5092375;28;20196;-73
2022/06/08 07:59:33;;;;;;;6.80;2.63;;;;;;;25.75;100.00;63554.31;5092460;28;20210;-73
2022/06/08 08:02:02;;;;;;;6.83;2.60;;;;;;;25.58;100.00;63541.03;5093430;28;20245;-73
2022/06/08 08:04:29;;;;;;;6.70;2.97;;;;;;;26.26;100.00;63611.28;5090936;28;20207;-73
2022/06/08 08:06:57;;;;;;;6.33;2.40;;;;;;;26.31;100.00;63616.69;5091900;28;20250;-74
2022/06/08 08:09:25;;;;;;;7.60;2.90;;;;;;;26.77;100.00;63664.66;5091589;28;20259;-73
2022/06/08 08:11:55;;;;;;;5.70;2.47;;;;;;;26.86;100.00;63673.38;5091062;28;20255;-73
2022/06/08 08:14:25;;;;;;;4.10;2.10;;;;;;;27.18;100.00;63711.34;5091355;28;20191;-73
2022/06/08 08:16:53;;;;;;;3.63;2.47;;;;;;;27.15;100.00;63705.44;5091681;28;20654;-73
2022/06/08 08:19:24;;;;;;;5.97;2.23;;;;;;;26.95;100.00;63688.38;5091804;28;20214;-71
2022/06/08 08:21:51;;;;;;;3.70;1.80;;;;;;;26.51;100.00;63639.00;5092096;28;20221;-73
2022/06/08 08:24:18;;;;;;;4.27;2.57;;;;;;;27.10;100.00;63704.69;5077176;28;20196;-74
2022/06/08 08:26:46;;;;;;;12.47;2.70;;;;;;;27.09;100.00;63698.91;5091562;28;20331;-75
2022/06/08 08:29:14;;;;;;;3.10;2.00;;;;;;;26.54;100.00;63647.47;5091116;28;20662;-75
2022/06/08 08:31:41;;;;;;;4.20;2.07;;;;;;;26.55;100.00;63645.41;5091128;28;20291;-73
2022/06/08 08:34:08;;;;;;;2.57;2.00;;;;;;;26.61;100.00;63646.69;5091246;28;20604;-74
2022/06/08 08:36:37;;;;;;;4.53;2.50;;;;;;;26.76;100.00;63668.78;5091411;28;20263;-75
2022/06/08 08:39:04;;;;;;;2.37;1.90;;;;;;;26.79;100.00;63671.53;5091296;28;20686;-73
2022/06/08 08:44:35;;;;;;;2.27;2.00;;;;;;;27.10;100.00;63704.69;5091573;28;20215;-74
2022/06/08 08:47:24;;;;;;;4.90;1.93;;;;;;;27.61;100.00;63760.19;5091339;28;20215;-74
2022/06/08 08:49:55;;;;;;;6.33;2.00;;;;;;;26.92;100.00;63679.88;5091123;28;20227;-74
2022/06/08 08:52:39;;;;;;;4.37;2.20;;;;;;;27.57;100.00;63751.16;5091271;28;20234;-76
2022/06/08 08:55:17;;;;;;;5.03;2.10;;;;;;;27.30;100.00;63724.38;5091283;28;20203;-75
2022/06/08 08:57:55;;;;;;;8.97;2.13;;;;;;;26.99;100.00;63693.28;5076910;28;20205;-74
2022/06/08 09:00:31;;;;;;;4.73;1.87;;;;;;;27.32;100.00;63729.19;5090868;28;20778;-77
2022/06/08 09:03:18;;;;;;;8.27;2.20;;;;;;;27.39;100.00;63734.19;5091219;28;20199;-74
2022/06/08 09:05:48;;;;;;;2.10;1.70;;;;;;;27.64;100.00;63760.31;5090582;28;20207;-74
2022/06/08 09:08:23;;;;;;;3.43;2.07;;;;;;;27.37;100.00;63734.09;5090898;28;20261;-74
2022/06/08 09:10:51;;;;;;;10.00;2.20;;;;;;;27.49;100.00;63742.44;5090741;28;20219;-75
2022/06/08 09:13:22;;;;;;;2.80;1.97;;;;;;;27.61;100.00;63757.59;5094801;28;20257;-74
2022/06/08 09:15:52;;;;;;;4.83;2.67;;;;;;;27.88;100.00;63783.81;5094842;28;20287;-74
2022/06/08 09:18:33;;;;;;;4.90;1.90;;;;;;;27.66;100.00;63762.47;5094891;28;20265;-73
2022/06/08 09:21:01;;;;;;;2.77;1.70;;;;;;;27.23;100.00;63719.38;5080332;28;20303;-73
2022/06/08 09:23:39;;;;;;;1.70;1.60;;;;;;;27.32;100.00;63729.19;5095058;28;20215;-73
2022/06/08 09:26:10;;;;;;;1.87;1.70;;;;;;;26.74;100.00;63663.47;5080928;28;20196;-74
2022/06/08 09:28:41;;;;;;;3.17;1.80;;;;;;;26.13;100.00;63599.75;5093873;28;20666;-74
2022/06/08 09:31:25;;;;;;;6.73;2.03;;;;;;;26.38;100.00;63626.94;5094454;28;20231;-73
2022/06/08 09:34:08;;;;;;;4.83;2.17;;;;;;;26.68;100.00;63659.56;5094486;28;20669;-73
2022/06/08 09:36:36;;;;;;;4.63;1.90;;;;;;;27.16;100.00;63708.59;5095012;28;20635;-75
2022/06/08 09:39:07;;;;;;;2.37;1.63;;;;;;;27.07;100.00;63701.97;5094350;28;20199;-75
2022/06/08 09:41:40;;;;;;;5.10;2.10;;;;;;;27.69;100.00;63768.38;5094102;28;20215;-75
2022/06/08 09:44:19;;;;;;;4.00;1.80;;;;;;;27.94;100.00;63790.88;5094858;28;20215;-76
2022/06/08 09:52:44;;;;;;;5.00;2.00;;;;;;;28.39;100.00;63847.75;5093922;28;20230;-75
2022/06/08 09:55:24;;;;;;;2.67;1.77;;;;;;;27.90;100.00;63789.16;5093935;28;20202;-74
2022/06/08 09:58:02;;;;;;;4.60;1.90;;;;;;;28.37;100.00;63842.44;5093925;28;20249;-76
2022/06/08 10:00:35;;;;;;;17.33;3.83;;;;;;;28.86;100.00;63890.56;5093505;28;20692;-77
2022/06/08 10:03:21;;;;;;;3.73;1.90;;;;;;;28.71;100.00;63876.84;5093772;28;20198;-75
2022/06/08 10:05:58;;;;;;;4.00;2.10;;;;;;;29.38;100.00;63943.53;5080480;28;20558;-75
2022/06/08 10:08:29;;;;;;;8.97;2.27;;;;;;;29.50;100.00;63967.13;5093657;28;20199;-75
2022/06/08 10:11:34;;;;;;;2.73;1.90;;;;;;;28.69;100.00;63877.28;5093907;28;20231;-74
2022/06/08 10:14:03;;;;;;;8.43;2.20;;;;;;;29.53;100.00;63965.13;5093623;28;20290;-74
2022/06/08 10:16:35;;;;;;;11.13;2.13;;;;;;;29.47;100.00;63961.22;5093783;28;20220;-74
2022/06/08 10:19:07;;;;;;;3.23;2.13;;;;;;;29.13;100.00;63925.22;5093635;28;20207;-74
2022/06/08 10:21:39;;;;;;;2.67;2.20;;;;;;;28.86;100.00;63895.81;5093587;28;20203;-75
2022/06/08 10:24:13;;;;;;;5.50;2.40;;;;;;;29.06;100.00;63914.41;5093637;28;20203;-74
2022/06/08 10:26:47;;;;;;;6.83;1.93;;;;;;;29.35;100.00;63956.00;5093848;28;20196;-74
2022/06/08 10:29:18;;;;;;;3.40;1.87;;;;;;;29.49;100.00;63963.94;5093739;28;20199;-74
2022/06/08 10:31:50;;;;;;;4.80;2.10;;;;;;;29.48;100.00;63959.69;5093463;28;20356;-73
2022/06/08 10:34:20;;;;;;;1.97;1.80;;;;;;;29.69;96.23;63985.19;5093278;28;20277;-74
2022/06/08 10:36:51;;;;;;;1.80;1.70;;;;;;;29.72;100.00;63988.50;5093139;28;20239;-74
2022/06/08 10:39:19;;;;;;;5.30;2.10;;;;;;;29.28;100.00;63940.50;5093307;28;20230;-73
2022/06/08 10:45:01;;;;;;;3.37;2.00;;;;;;;29.95;96.79;64010.94;5093406;28;20203;-76
2022/06/08 10:47:31;;;;;;;6.27;2.20;;;;;;;30.42;89.04;64059.59;5093219;28;20207;-75
2022/06/08 10:50:24;;;;;;;2.13;1.80;;;;;;;30.45;88.41;64062.84;5093679;28;20203;-74
2022/06/08 10:52:51;;;;;;;4.13;1.93;;;;;;;30.51;81.64;64074.66;5078432;28;20263;-75
2022/06/08 10:55:37;;;;;;;4.37;2.13;;;;;;;30.16;82.50;64036.47;5093098;28;20200;-73
2022/06/08 10:58:12;;;;;;;7.90;1.93;;;;;;;29.78;84.74;63995.56;5093166;28;20254;-75
2022/06/08 11:01:07;;;;;;;4.13;1.97;;;;;;;30.22;77.99;64039.81;5092747;28;20215;-74
2022/06/08 11:03:54;;;;;;;7.93;1.90;;;;;;;29.84;81.56;63998.94;5091757;28;20205;-74
2022/06/08 11:07:03;;;;;;;8.37;1.90;;;;;;;30.03;87.09;64017.56;5092710;28;20199;-75
2022/06/08 11:10:05;;;;;;;4.70;2.17;;;;;;;30.59;76.88;64082.81;5092593;28;20200;-75
2022/06/08 11:12:52;;;;;;;4.73;2.23;;;;;;;30.34;75.22;64055.56;5082486;28;20233;-75
2022/06/08 11:15:39;;;;;;;2.43;2.20;;;;;;;30.27;81.24;64045.81;5092517;28;20696;-74
2022/06/08 11:18:17;;;;;;;4.60;2.50;;;;;;;30.59;80.45;64078.13;5089808;28;20206;-76
2022/06/08 11:20:50;;;;;;;3.70;2.00;;;;;;;30.72;78.15;64097.03;5079969;28;20211;-75
2022/06/08 11:23:22;;;;;;;4.13;2.20;;;;;;;30.95;73.30;64116.34;5074381;28;20214;-74
2022/06/08 11:25:53;;;;;;;3.53;2.17;;;;;;;31.39;71.00;64169.63;5092689;28;20229;-76
2022/06/08 11:28:35;;;;;;;7.17;2.00;;;;;;;30.85;76.70;64111.22;5092306;28;20207;-73
2022/06/08 11:31:06;;;;;;;2.70;2.00;;;;;;;31.55;73.31;64187.63;5080665;28;20230;-76
2022/06/08 11:34:04;;;;;;;4.87;2.30;;;;;;;31.90;72.82;64225.31;5092140;28;20211;-74
2022/06/08 11:36:58;;;;;;;7.70;2.80;;;;;;;32.46;69.97;64285.97;5092458;28;20689;-74
2022/06/08 11:39:29;;;;;;;4.93;2.40;;;;;;;32.66;65.79;64307.31;5083975;28;20211;-74
2022/06/08 11:42:22;;;;;;;2.90;2.13;;;;;;;32.33;67.62;64269.13;5092495;28;20613;-75
2022/06/08 11:44:53;;;;;;;5.73;2.30;;;;;;;32.42;65.33;64276.88;5092133;28;20204;-75
2022/06/08 11:47:27;;;;;;;5.40;2.50;;;;;;;31.64;68.63;64196.94;5091831;28;20200;-75
2022/06/08 11:50:01;;;;;;;4.93;2.40;;;;;;;32.10;65.59;64246.63;5092482;28;20234;-74
2022/06/08 11:52:32;;;;;;;10.10;2.80;;;;;;;32.05;65.32;64236.47;5091781;28;20709;-75
2022/06/08 11:55:15;;;;;;;2.53;2.30;;;;;;;32.20;63.85;64258.09;5091933;28;20196;-74
2022/06/08 11:57:48;;;;;;;9.13;2.67;;;;;;;32.06;60.12;64242.81;5091879;28;20203;-75
2022/06/08 12:00:23;;;;;;;6.83;2.60;;;;;;;31.63;57.58;64193.22;5092332;28;20208;-73
2022/06/08 12:02:56;;;;;;;4.80;2.20;;;;;;;31.55;60.49;64187.09;5091480;28;20203;-75